Hovedside
METAR-TAF:

METAR-TAF

Lufthavner :

Jinnah internasjonale lufthavn

Karachi, Pakistan

breddegrad: 24-54N, lengdegrad: 067-08E, høyde over havet: 21 m

Gjeldene værobservasjon

Denne rapporten ble laget for 21 minutter siden, klokken 11:55 UTC
Vind 5 kt fra Vest-nordvest
Temperatur 26°C
Luftfuktighet 8%
Trykk 1018 hPa
Sikt: 8000 m

METAR: OPKC 181155Z 30005KT 8000 NSC 26/M11 Q1018 NOSIG

Tid: 17:16 (12:16 UTC)

Varsel

Denne rapporten ble laget for 2 timer og 46 minutter siden, klokken 09:30 UTC
Varsel gyldig fra 18. klokken 12 UTC til 18. klokken 21 UTC
Vind 8 kt fra Nordvest
Sikt: 6000 m

TAF: OPKC 180930Z 1812/1821 32008KT 6000 NSC

Værobservasjoner og værvarsel for over 4000 flyplasser (METAR- og TAF-rapporter).

Tilgjengelige stasjoner er representert av de røde og gule prikkene på kartet.

Hold musepekeren over prikken for å se navnet på stasjonen.

Klikk så for å se værobservasjoner og -varsler.

For å forandre kartet kan du klikke på den grønne knappen med svart kryss for å zoome inn, på den grønne knappen med strek for å zoome ut, eller på de grønne pilene for å se tilstøtende kart.


METAR-TAF: